Latest Weather Observations for Badgerys Creek

IDN60901

Issued at 6:51 pm EST Saturday 30 April 2016 (issued every 10 minutes, with the page automatically refreshed every 10 minutes)

About weather observations | Map of Sydney area stations | Latest observations for Sydney area | Other Formats
Station Details ID: 067108 Name: BADGERYS CREEK AWS Lat: -33.90 Lon: 150.73 Height: 81.2 m
Data from the previous 72 hours. | See also: Recent months at Badgerys Creek
Date/Time
EST
Tmp

°C
App
Tmp
°C
Dew
Point
°C
Rel
Hum
%
Delta-T

°C
Wind Press
QNH
hPa
Press
MSL
hPa
Rain
since
9 am
mm
Dir
 
Spd
km/h
Gust
km/h
Spd
kts
Gust
kts
30/06:30pm 19.6 20.8 17.4 87 1.3 NNW 7 9 4 5 1016.2 1016.1 0.2
30/06:00pm 19.7 20.4 17.1 85 1.6 NNW 9 9 5 5 1016.0 1015.9 0.2
30/05:30pm 20.9 22.1 17.3 80 2.2 N 7 7 4 4 1015.9 1015.8 0.2
30/05:00pm 21.9 23.2 17.5 76 2.7 N 7 7 4 4 1015.8 1015.7 0.2
30/04:30pm 23.0 24.0 17.7 72 3.3 N 9 13 5 7 1015.8 1015.7 0.2
30/04:00pm 23.5 25.0 17.5 69 3.7 N 6 9 3 5 1015.8 1015.7 0.2
30/03:30pm 24.7 26.1 17.9 66 4.3 NNW 7 9 4 5 1015.6 1015.5 0.2
30/03:00pm 24.1 25.3 17.4 66 4.2 N 7 11 4 6 1015.6 1015.5 0.2
30/02:30pm 24.2 25.3 17.2 65 4.3 N 7 9 4 5 1015.6 1015.5 0.2
30/02:00pm 24.4 25.6 17.4 65 4.4 N 7 13 4 7 1015.7 1015.6 0.2
30/01:30pm 24.6 25.8 17.3 64 4.5 N 7 9 4 5 1015.8 1015.7 0.2
30/01:00pm 24.9 26.5 17.9 65 4.4 N 6 9 3 5 1016.0 1015.9 0.2
30/12:30pm 24.6 26.2 17.8 66 4.3 N 6 11 3 6 1016.5 1016.4 0.2
30/12:00pm 23.9 25.3 17.4 67 4.0 N 6 9 3 5 1016.9 1016.8 0.0
30/11:30am 22.4 24.0 17.8 75 2.9 N 6 7 3 4 1017.3 1017.2 0.0
30/11:00am 21.6 22.7 18.0 80 2.2 NNE 9 15 5 8 1017.8 1017.6 0.0
30/10:30am 20.6 21.9 17.6 83 1.9 NNE 7 11 4 6 1018.3 1018.1 0.0
30/10:00am 20.0 22.7 18.7 92 0.8 NNW 2 4 1 2 1018.7 1018.5 0.0
30/09:30am 18.5 21.3 18.0 97 0.3 CALM 0 2 0 1 1018.8 1018.6 0.0
30/09:00am 17.9 20.3 17.9 100 0.0 NNW 2 4 1 2 1018.9 1018.7 1.0
30/08:30am 17.2 18.9 17.2 100 0.0 NNW 4 9 2 5 1019.1 1018.9 1.0
30/08:00am 16.9 17.2 16.9 100 0.0 NNE 11 13 6 7 1018.8 1018.6 1.0
30/07:30am 16.4 17.2 16.4 100 0.0 NNE 7 9 4 5 1018.9 1018.7 0.6
30/07:00am 16.3 17.7 16.3 100 0.0 WSW 4 6 2 3 1018.7 1018.5 0.4
30/06:30am 16.2 17.9 16.2 100 0.0 WSW 2 4 1 2 1018.5 1018.3 0.4
30/06:00am 16.5 18.5 16.0 97 0.3 CALM 0 0 0 0 1018.2 1018.0 0.2
30/05:30am 16.7 18.7 16.1 96 0.4 CALM 0 2 0 1 1018.2 1018.0 0.0
30/05:00am 16.7 18.7 16.1 96 0.4 CALM 0 0 0 0 1018.3 1018.1 0.0
30/04:30am 16.4 17.9 15.8 96 0.4 WSW 2 4 1 2 1018.4 1018.2 0.0
30/04:00am 16.3 17.4 15.5 95 0.5 SW 4 6 2 3 1018.1 1017.9 0.0
30/03:30am 16.6 18.4 15.6 94 0.6 CALM 0 0 0 0 1017.8 1017.6 0.0
30/03:00am 16.7 18.6 15.7 94 0.6 CALM 0 0 0 0 1017.6 1017.4 0.0
30/02:30am 16.6 17.7 15.6 94 0.6 SW 4 6 2 3 1017.7 1017.5 0.0
30/02:00am 16.7 18.2 15.6 93 0.6 SW 2 2 1 1 1017.8 1017.6 0.0
30/01:30am 16.8 18.2 15.5 92 0.8 SW 2 4 1 2 1018.1 1017.9 0.0
30/01:00am 16.7 17.8 15.6 93 0.6 SW 4 6 2 3 1018.4 1018.2 0.0
30/12:30am 16.7 17.1 15.4 92 0.8 N 7 7 4 4 1018.5 1018.3 0.0
30/12:00am 16.9 17.6 15.6 92 0.8 N 6 7 3 4 1018.5 1018.3 0.0
 
Date/Time
EST
Tmp

°C
App
Tmp
°C
Dew
Point
°C
Rel
Hum
%
Delta-T

°C
Wind Press
QNH
hPa
Press
MSL
hPa
Rain
since
9 am
mm
Dir
 
Spd
km/h
Gust
km/h
Spd
kts
Gust
kts
29/11:30pm 17.0 17.7 15.5 91 0.9 N 6 7 3 4 1018.7 1018.5 0.0
29/11:00pm 16.9 17.4 15.6 92 0.8 N 7 7 4 4 1019.0 1018.8 0.0
29/10:30pm 16.7 17.8 15.6 93 0.6 N 4 6 2 3 1019.1 1018.9 0.0
29/10:00pm 17.1 18.3 15.8 92 0.8 N 4 4 2 2 1019.2 1019.0 0.0
29/09:30pm 17.0 18.3 15.2 89 1.0 N 2 2 1 1 1019.2 1019.0 0.0
29/09:00pm 17.2 18.3 15.5 90 1.0 N 4 4 2 2 1019.2 1019.0 0.0
29/08:30pm 16.7 17.8 14.7 88 1.2 N 2 6 1 3 1019.2 1019.0 0.0
29/08:00pm 17.8 19.5 15.2 85 1.5 CALM 0 2 0 1 1019.0 1018.8 0.0
29/07:30pm 18.2 19.3 14.7 80 2.0 N 2 4 1 2 1018.9 1018.7 0.0
29/07:00pm 18.6 20.1 14.7 78 2.3 CALM 0 0 0 0 1019.1 1018.9 0.0
29/06:30pm 19.1 20.6 14.6 75 2.6 CALM 0 0 0 0 1018.7 1018.5 0.0
29/06:00pm 20.4 21.9 14.7 70 3.3 CALM 0 0 0 0 1018.5 1018.3 0.0
29/05:30pm 20.9 21.7 14.8 68 3.6 N 4 4 2 2 1018.6 1018.4 0.0
29/05:00pm 22.1 23.5 14.5 62 4.5 CALM 0 0 0 0 1018.3 1018.1 0.0
29/04:30pm 23.0 24.4 14.3 58 5.1 CALM 0 0 0 0 1018.1 1017.9 0.0
29/04:00pm 23.7 24.4 14.4 56 5.5 N 4 6 2 3 1018.1 1017.9 0.0
29/03:30pm 24.2 24.2 14.3 54 5.9 N 7 11 4 6 1018.2 1018.0 0.0
29/03:00pm 24.0 24.0 14.1 54 5.8 NNE 7 9 4 5 1018.1 1017.9 0.0
29/02:30pm 24.2 24.0 13.7 52 6.2 N 7 11 4 6 1018.5 1018.3 0.0
29/02:00pm 24.2 23.6 13.4 51 6.3 NNE 9 11 5 6 1018.6 1018.4 0.0
29/01:30pm 23.7 23.6 13.8 53 5.8 NE 7 11 4 6 1018.6 1018.4 0.0
29/01:00pm 23.9 23.6 13.4 51 6.1 NNE 7 11 4 6 1019.2 1019.0 0.0
29/12:30pm 23.7 24.5 14.7 57 5.4 NNE 4 9 2 5 1019.9 1019.7 0.0
29/12:00pm 22.6 23.3 14.4 60 4.8 N 4 9 2 5 1020.7 1020.5 0.0
29/11:30am 21.6 22.1 14.0 62 4.4 N 4 7 2 4 1021.3 1021.1 0.0
29/11:00am 21.2 21.4 14.1 64 4.1 NNW 6 11 3 6 1021.7 1021.5 0.0
29/10:30am 21.4 22.0 14.3 64 4.2 N 4 6 2 3 1021.8 1021.6 0.0
29/10:00am 21.1 22.0 15.2 69 3.5 WSW 4 4 2 2 1022.3 1022.1 0.0
29/09:30am 18.7 20.0 15.2 80 2.1 SSW 2 4 1 2 1022.8 1022.6 0.0
29/09:00am 16.2 17.1 16.2 100 0.0 SSW 6 7 3 4 1023.1 1022.9 0.0
29/08:30am 14.5 15.9 14.5 100 0.0 CALM 0 0 0 0 1023.2 1023.0 0.0
29/08:00am 13.8 14.2 13.8 100 0.0 SSW 4 4 2 2 1023.2 1023.0 0.0
29/07:30am 13.6 14.4 13.6 100 0.0 SSW 2 4 1 2 1023.0 1022.8 0.0
29/07:00am 11.2 11.6 11.2 100 0.0 CALM 0 0 0 0 1022.4 1022.2 0.0
29/06:30am 10.5 10.3 10.5 100 0.0 SSW 2 6 1 3 1022.3 1022.1 0.0
29/06:00am 11.1 10.3 11.1 100 0.0 SSW 6 6 3 3 1022.2 1022.0 0.0
29/05:30am 10.4 9.4 10.4 100 0.0 SSW 6 6 3 3 1022.2 1022.0 0.0
29/05:00am 11.3 11.0 11.3 100 0.0 SSW 4 6 2 3 1022.0 1021.8 0.0
29/04:30am 11.5 11.2 11.5 100 0.0 SSW 4 4 2 2 1022.1 1021.9 0.0
29/04:00am 12.4 12.8 12.4 100 0.0 SSW 2 4 1 2 1022.0 1021.8 0.0
29/03:30am 13.0 12.8 13.0 100 0.0 SSW 6 6 3 3 1021.8 1021.6 0.0
29/03:00am 13.4 13.3 13.4 100 0.0 SSW 6 6 3 3 1021.9 1021.7 0.0
29/02:30am 13.3 13.2 13.3 100 0.0 SSW 6 7 3 4 1022.2 1022.0 0.0
29/02:00am 13.0 12.6 13.0 100 0.0 SSW 7 9 4 5 1022.2 1022.0 0.0
29/01:30am 13.4 13.3 13.4 100 0.0 SSW 6 6 3 3 1022.4 1022.2 0.0
29/01:00am 14.2 14.4 14.2 100 0.0 SSW 6 6 3 3 1022.5 1022.3 0.0
29/12:30am 13.9 14.0 13.9 100 0.0 SSW 6 7 3 4 1022.8 1022.6 0.0
29/12:00am 14.7 15.1 14.7 100 0.0 SSW 6 6 3 3 1022.8 1022.6 0.0
 
Date/Time
EST
Tmp

°C
App
Tmp
°C
Dew
Point
°C
Rel
Hum
%
Delta-T

°C
Wind Press
QNH
hPa
Press
MSL
hPa
Rain
since
9 am
mm
Dir
 
Spd
km/h
Gust
km/h
Spd
kts
Gust
kts
28/11:30pm 15.0 15.5 15.0 100 0.0 SSW 6 7 3 4 1023.0 1022.8 0.0
28/11:00pm 14.4 14.7 14.4 100 0.0 ENE 6 7 3 4 1023.1 1022.9 0.0
28/10:30pm 14.7 15.4 14.5 99 0.1 ENE 4 6 2 3 1023.0 1022.8 0.0
28/10:00pm 15.3 16.5 14.8 97 0.3 ENE 2 4 1 2 1023.1 1022.9 0.0
28/09:30pm 15.6 16.5 14.0 90 0.9 ENE 2 4 1 2 1023.0 1022.8 0.0
28/09:00pm 16.8 18.3 14.6 87 1.3 CALM 0 0 0 0 1022.8 1022.6 0.0
28/08:30pm 17.0 18.3 14.1 83 1.7 CALM 0 0 0 0 1022.6 1022.4 0.0
28/08:00pm 19.4 21.1 15.3 77 2.4 CALM 0 0 0 0 1022.4 1022.2 0.0
28/07:30pm 18.3 19.0 14.4 78 2.3 ENE 4 6 2 3 1022.3 1022.1 0.0
28/07:00pm 20.0 20.9 15.0 73 2.9 ENE 4 6 2 3 1022.2 1022.0 0.0
28/06:30pm 20.4 20.7 14.5 69 3.5 ENE 6 7 3 4 1022.2 1022.0 0.0
28/06:00pm 21.5 21.6 14.4 64 4.2 E 7 9 4 5 1021.8 1021.6 0.0
28/05:30pm 22.9 22.9 12.5 52 5.9 ENE 4 6 2 3 1021.3 1021.1 0.0
28/05:00pm 24.6 24.5 12.2 46 7.1 ENE 4 6 2 3 1021.0 1020.8 0.0
28/04:30pm 25.8 25.3 12.6 44 7.7 ENE 7 9 4 5 1021.0 1020.8 0.0
28/04:00pm 26.3 25.4 12.7 43 7.9 ENE 9 11 5 6 1021.0 1020.8 0.0
28/03:30pm 26.7 26.2 12.7 42 8.2 NNE 7 13 4 7 1020.9 1020.7 0.0
28/03:00pm 26.8 26.6 13.5 44 7.8 NE 7 13 4 7 1021.1 1020.9 0.0
28/02:30pm 26.5 25.8 13.3 44 7.8 NNE 9 13 5 7 1021.1 1020.9 0.0
28/02:00pm 26.1 26.1 14.2 48 7.1 NE 7 13 4 7 1021.2 1021.0 0.0
28/01:30pm 25.6 25.7 14.4 50 6.7 N 7 11 4 6 1021.5 1021.3 0.0
28/01:00pm 24.9 25.6 15.5 56 5.7 ENE 6 11 3 6 1022.0 1021.8 0.0
28/12:30pm 24.3 25.1 15.8 59 5.2 NNE 6 9 3 5 1022.6 1022.4 0.0
28/12:00pm 22.2 23.1 15.1 64 4.2 N 4 11 2 6 1023.0 1022.8 0.0
28/11:30am 21.5 22.0 15.1 67 3.8 NNE 6 13 3 7 1023.7 1023.5 0.0
28/11:00am 20.1 20.7 15.3 74 2.8 NNE 6 7 3 4 1024.2 1024.1 0.0
28/10:30am 18.9 19.8 15.2 79 2.2 NNE 4 6 2 3 1024.6 1024.5 0.0
28/10:00am 16.8 18.5 15.3 91 0.9 CALM 0 2 0 1 1024.8 1024.7 0.0
28/09:30am 15.6 17.0 15.4 99 0.1 NNE 2 4 1 2 1025.1 1025.0 0.0
28/09:00am 14.9 16.1 14.9 100 0.0 NNE 2 4 1 2 1025.2 1025.1 0.0
28/08:30am 14.4 15.8 14.4 100 0.0 CALM 0 6 0 3 1025.3 1025.2 0.0
28/08:00am 13.3 14.3 13.3 100 0.0 CALM 0 0 0 0 1025.0 1024.9 0.0
28/07:30am 12.0 11.9 12.0 100 0.0 NNE 4 6 2 3 1024.8 1024.7 0.0
28/07:00am 11.4 11.5 11.4 100 0.0 NNE 2 4 1 2 1024.3 1024.2 0.0
28/06:30am 11.6 11.0 11.6 100 0.0 NNE 6 7 3 4 1024.0 1023.9 0.0
28/06:00am 11.0 11.0 11.0 100 0.0 NNE 2 4 1 2 1023.8 1023.6 0.0
28/05:30am 11.4 11.5 11.4 100 0.0 NNE 2 2 1 1 1023.7 1023.5 0.0
28/05:00am 12.0 11.5 12.0 100 0.0 NNE 6 6 3 3 1023.6 1023.4 0.0
28/04:30am 12.0 11.5 12.0 100 0.0 NNE 6 7 3 4 1023.6 1023.4 0.0
28/04:00am 11.8 11.0 11.8 100 0.0 NNE 7 7 4 4 1023.4 1023.2 0.0
28/03:30am 11.5 10.6 11.5 100 0.0 NNE 7 9 4 5 1023.2 1023.0 0.0
28/03:00am 11.8 11.2 11.8 100 0.0 NNE 6 6 3 3 1023.1 1022.9 0.0
28/02:30am 12.0 11.5 12.0 100 0.0 NNE 6 6 3 3 1023.2 1023.0 0.0
28/02:00am 12.1 11.6 12.1 100 0.0 NNE 6 6 3 3 1023.7 1023.5 0.0
28/01:30am 11.7 11.1 11.7 100 0.0 NNE 6 6 3 3 1023.6 1023.4 0.0
28/01:00am 12.7 12.4 12.7 100 0.0 NNE 6 6 3 3 1023.8 1023.6 0.0
28/12:30am 12.8 12.5 12.8 100 0.0 NNE 6 7 3 4 1024.1 1024.0 0.0
28/12:00am 13.1 13.3 13.1 100 0.0 NNE 4 4 2 2 1024.2 1024.1 0.0
 
Date/Time
EST
Tmp

°C
App
Tmp
°C
Dew
Point
°C
Rel
Hum
%
Delta-T

°C
Wind Press
QNH
hPa
Press
MSL
hPa
Rain
since
9 am
mm
Dir
 
Spd
km/h
Gust
km/h
Spd
kts
Gust
kts
27/11:30pm 12.8 12.5 12.8 100 0.0 NNE 6 6 3 3 1024.5 1024.4 0.0
27/11:00pm 13.3 14.3 13.1 99 0.1 CALM 0 0 0 0 1024.6 1024.5 0.0
27/10:30pm 14.6 16.1 14.6 100 0.0 CALM 0 0 0 0 1024.8 1024.7 0.0
27/10:00pm 14.1 14.9 13.6 97 0.3 NNE 2 4 1 2 1025.0 1024.9 0.0
27/09:30pm 15.3 16.7 14.3 94 0.6 CALM 0 0 0 0 1025.1 1025.0 0.0
27/09:00pm 15.9 16.1 14.1 89 1.0 NNE 6 7 3 4 1025.0 1024.9 0.0
27/08:30pm 16.1 16.3 14.3 89 1.0 NNE 6 6 3 3 1025.0 1024.9 0.0
27/08:00pm 17.1 17.6 15.1 88 1.2 NNE 6 7 3 4 1024.9 1024.8 0.0
27/07:30pm 17.7 18.6 15.1 85 1.5 NE 4 4 2 2 1024.7 1024.6 0.0
27/07:00pm 18.5 19.7 15.0 80 2.0 NE 2 2 1 1 1024.4 1024.3 0.0

Latest Capital City Observations: Canberra | Sydney | Melbourne | Brisbane | Adelaide | Perth | Hobart | Darwin

Other Formats:

Comma delimited format used in spreadsheet applications
http://www.bom.gov.au/fwo/IDN60901/IDN60901.94752.axf

JavaScript Object Notation format (JSON) in row-major order
http://www.bom.gov.au/fwo/IDN60901/IDN60901.94752.json